Idlewild, Michigan
Current Conditions -  °F | °C
As of 11:14 AM on Thursday 29 Jan 2015 (Local Time) from KRQB Reporting Station
Light Snow Light Snow  
Wind Chill: 27°   Ceiling: 1300
Heat Index: 27°   Visibility: 2.5mi
Dew Point: 26°   Wind: 0mph
Humidity: 97%   Direction: NA
Pressure: 29.76"   Gusts: NA
Location:  43.89°N, 85.8°W
Report Text: KRQB 291614Z AUTO 00000KT 2 1/2SM -SN OVC013 M03/M03 A2976 RMK AO2 T10301034
Loading
Personal Weather Stations






























Interactive Weather Map New forecast layout! Learn more

10-Day Weather Forecast

Advertisements
Track Severe Weather on mobile